Somerville, MA

9:26 AM EDT on April 27, 2015 (GMT -0400)
East Milton | | Change Station
CLOSE
Current Station
Airport
Location: East Milton,
Elevation: 630 ft
Nearby Weather Stations

Elev 630 ft 42.21 °N, 71.11 °W | Updated 32 minutes ago

Overcast
Overcast
48 °F
Feels Like 48 °F
N
14
Wind Variable Wind from NW
Gusts 22 mph

Today
High -- | Low -- °F
--% Chance of Precip.
Yesterday
High -- | Low -- °F
Precip. -- in
5:45 AM 7:39 PM
Waxing Gibbous, 65% visible
Pressure 29.61 in
Visibility -9999.0 miles
Clouds
Dew Point 35 °F
Humidity 61%
Rainfall 0.00 in
Snow Depth Not available.
UV Not available.
Pollen 9.20 out of 12
Air Quality Not available.
Flu Activity Widespread
METAR KMQE 271254Z AUTO 32012G19KT 09/02 A2957 RMK AO1 SLP026 T00890017

More Conditions Fewer Conditions

Pressure 29.61 in
Visibility -9999.0 miles
Clouds
Dew Point 35 °F
Humidity 61%
Rainfall 0.00 in
Snow Depth Not available.
UV Not available.
Pollen 9.20 out of 12
Air Quality Not available.
Flu Activity Widespread
METAR KMQE 271254Z AUTO 32012G19KT 09/02 A2957 RMK AO1 SLP026 T00890017

More Conditions Fewer Conditions

10-Day Weather Forecast

Almanac

Astronomy

Apr. 27, 2015 Rise Set
Actual Time
Civil Twilight
Nautical Twilight
Astronomical Twilight
Moon
Length of Visible Light
Length of Day
Tomorrow will be .
, % of the Moon is Illuminated

Today's Extremes

State Highs State Lows

Community

WunderPhotos

Upload Photos

1,817,307 photos uploaded!

WunderBlogs® & News

Nearby

Air Quality

  Air Quality AQ Index Pollutant
Not available.

Snow Depth

Station Depth Elevation

Earthquake Activity

City Distance Mag. Time & Date
Minimum magnitude displayed is 2.5.

Coastal Water Temperatures

Place Temperature

Stations

Nearby Weather Stations

Station Location Temp. Windchill Dew Point Humidity Wind Precip. Elev Updated Type